West Tisbury, MA (02575)

2:41 PM EDT on July 23, 2017 (GMT -0400)
Flying skunk farm | | Change Station

Elev 81 ft 41.41 °N, 70.63 °W | Updated 50 seconds ago

Overcast
Overcast
72.5 °F
Feels Like 75 °F
N
6.0
Wind Variable Wind from East
Gusts 12.0 mph

Today
High -- | Low -- °F
--% Chance of Precip.
Yesterday
High -- | Low -- °F
Precip. -- in
Pressure 29.86 in
Visibility 10.0 miles
Clouds Few 2600 ft
Overcast 3300 ft
Heat Index 75 °F
Dew Point 60 °F
Humidity 66%
Rainfall 0.00 in
Snow Depth Not available.
5:29 AM 8:08 PM
New Moon, 0% visible
METAR KMVY 231753Z 05010KT 10SM FEW026 OVC033 23/15 A2986 RMK AO2 SLP111 T02330150 10244 20217 53010
Pressure 29.86 in
Visibility 10.0 miles
Clouds Few 2600 ft
Overcast 3300 ft
Heat Index 75 °F
Dew Point 60 °F
Humidity 66%
Rainfall 0.00 in
Snow Depth Not available.
5:29 AM 8:08 PM
New Moon, 0% visible
METAR KMVY 231753Z 05010KT 10SM FEW026 OVC033 23/15 A2986 RMK AO2 SLP111 T02330150 10244 20217 53010

Get Severe Weather Alerts

Thanks for signing up!

Be on the lookout for a verification email in your inbox.

You'll start receiving the daily forecast at 6 AM.

×

10-Day Weather Forecast

Almanac

Astronomy

Jul. 23, 2017 Rise Set
Actual Time
Civil Twilight
Nautical Twilight
Astronomical Twilight
Moon
Length of Visible Light
Length of Day
Tomorrow will be .
, % of the Moon is Illuminated

Today's Extremes

State Highs State Lows

Community

WunderPhotos

Category 6

Welcome to Category 6. This is the collective home for Weather Underground's featured writeups by Dr. Jeff Masters (right), Bob Henson (left), Chris Burt, and other regular contributors.

Nearby

Air Quality

  Air Quality AQ Index Pollutant
Not available.

Snow Depth

Station Depth Elevation

Earthquake Activity

City Distance Mag. Time & Date
Minimum magnitude displayed is 2.5.

Coastal Water Temperatures

Place Temperature

Stations

Nearby Weather Stations

Station Location Temp. Windchill Dew Point Humidity Wind Precip. Elev Updated Type
                   

Watches & Warnings

There are currently no watches in effect.